South Vineland, New Jersey
Current Conditions -  °F | °C
As of 1:40 PM on Saturday 20 Dec 2014 (Local Time) from KMIV Reporting Station
Overcast Overcast  
Wind Chill: 29°   Ceiling: 3000
Heat Index: 35°   Visibility: 10mi
Dew Point: 24°   Wind: 7mph
Humidity: 64%   Direction: 20°NNE
Pressure: 30.25"   Gusts: NA
Location:  39.5016°N, 75.0264°W
Report Text: KMIV 201840Z AUTO 02006KT 10SM OVC030 02/M04 A3025 RMK AO2 T00171044
Loading
Personal Weather Stations






























Interactive Weather Map New forecast layout! Learn more

10-Day Weather Forecast

Advertisements
Track Severe Weather on mobile